CheckWX is a tool to help pilots better visualize weather data.  It is not intended as a substitute for an official pre-flight weather briefing.

12:06:58 UTC

KBUY METAR
Burlington-Alamance Regional Airport
Burlington, North Carolina, USA
Current

1 hour ago

KBUY 261054Z AUTO 18008KT 10SM FEW080 FEW095 SCT120 20/13 A2970 RMK AO2 SLP052 T02000133
Observed
Apr-26 @ 10:54 UTC
Wind
  • 180° at 8 KTS
Visibility
10 SM
Flight Rules
VFR
Cloud Levels
  • Few at 8,000' AGL
  • Few at 9,500' AGL
  • Scattered at 12,000' AGL
Temperature
20°C / 68°F
Dewpoint
13°C / 55°F
Humidity
64%
Altimeter
29.7" Hg
Pressure
1005.72 hPa
Previous

2 hours ago

KBUY 260954Z AUTO 18007KT 10SM SCT095 BKN110 20/14 A2972 RMK AO2 SLP056 T02000139
Observed
Apr-26 @ 09:54 UTC
Wind
  • 180° at 7 KTS
Visibility
10 SM
Flight Rules
VFR
Cloud Levels
  • Scattered at 9,500' AGL
  • Broken at 11,000' AGL
Temperature
20°C / 68°F
Dewpoint
14°C / 57°F
Humidity
69%
Altimeter
29.72" Hg
Pressure
1006.42 hPa
Previous

3 hours ago

KBUY 260854Z AUTO 18007KT 10SM CLR 21/14 A2972 RMK AO2 SLP058 T02060144 56022
Observed
Apr-26 @ 08:54 UTC
Wind
  • 180° at 7 KTS
Visibility
10 SM
Flight Rules
VFR
Cloud Levels
  • Clear skies
Temperature
21°C / 70°F
Dewpoint
14°C / 57°F
Humidity
64%
Altimeter
29.72" Hg
Pressure
1006.42 hPa